Robinwood, Mississippi
Current Conditions -  °F | °C
As of 10:55 AM on Saturday 22 Nov 2014 (Local Time) from K1R7 Reporting Station
Clear Clear  
Wind Chill: 64°   Ceiling: Unl
Heat Index: 64°   Visibility: 9mi
Dew Point: 52°   Wind: 10mph
Humidity: 64%   Direction: 130°SE
Pressure: 30.23"   Gusts: NA
Location:  31.4742°N, 90.119°W
Report Text: K1R7 221655Z AUTO 13009KT 9SM CLR 18/11 A3023 RMK AO2
Loading
Personal Weather Stations






























Interactive Weather Map New forecast layout! Learn more

10-Day Weather Forecast

Advertisements
Track Severe Weather on mobile